This is the latest recevied weather packets stored in our database for station/object K5RWS. If no packets are shown the sender has not sent any weather packets the latest 1 day(s).
| Time | Temp. | Humidity | Pressure | Rain* | Wind** | Luminosity | Snow |
|---|---|---|---|---|---|---|---|
| 1778019276 | 17.22° C | 42% | 1012.7 hPa | 0 mm | 4.02 m/s, 211° | 316 W/m² | - |
| 1778018973 | 17.78° C | 42% | 1012.7 hPa | 0 mm | 3.13 m/s, 223° | 603 W/m² | - |
| 1778018670 | 17.22° C | 42% | 1012.6 hPa | 0 mm | 2.68 m/s, 230° | 644 W/m² | - |
| 1778018367 | 16.67° C | 44% | 1012.6 hPa | 0 mm | 0.89 m/s, 184° | 366 W/m² | - |
| 1778018065 | 17.22° C | 43% | 1012.9 hPa | 0 mm | 3.13 m/s, 233° | 259 W/m² | - |
| 1778017763 | 16.67° C | 44% | 1013.1 hPa | 0 mm | 3.13 m/s, 226° | 331 W/m² | - |
| 1778017461 | 16.67° C | 45% | 1012.8 hPa | 0 mm | 2.68 m/s, 250° | 294 W/m² | - |
| 1778017158 | 16.67° C | 46% | 1013.2 hPa | 0 mm | 1.34 m/s, 204° | 310 W/m² | - |
| 1778016855 | 16.67° C | 45% | 1013.2 hPa | 0 mm | 0.89 m/s, 214° | 239 W/m² | - |
| 1778016551 | 16.11° C | 46% | 1013.1 hPa | 0 mm | 0.45 m/s, 195° | 177 W/m² | - |
| 1778016248 | 16.11° C | 47% | 1013.3 hPa | 0 mm | 0.45 m/s, 181° | 199 W/m² | - |
| 1778015945 | 16.11° C | 45% | 1013.4 hPa | 0 mm | 0.89 m/s, 252° | 246 W/m² | - |
| 1778015642 | 16.11° C | 45% | 1013.1 hPa | 0 mm | 3.13 m/s, 247° | 298 W/m² | - |
| 1778015338 | 16.11° C | 45% | 1013.3 hPa | 0 mm | 1.79 m/s, 201° | 289 W/m² | - |
| 1778015036 | 16.11° C | 45% | 1013.3 hPa | 0 mm | 3.13 m/s, 278° | 381 W/m² | - |
| 1778014732 | 17.22° C | 42% | 1013.2 hPa | 0 mm | 2.68 m/s, 216° | 323 W/m² | - |
| 1778014431 | 17.22° C | 42% | 1013.4 hPa | 0 mm | 3.58 m/s, 118° | 481 W/m² | - |
| 1778014127 | 16.67° C | 45% | 1013.4 hPa | 0 mm | 1.79 m/s, 32° | 640 W/m² | - |
| 1778013825 | 17.22° C | 42% | 1013.6 hPa | 0 mm | 2.68 m/s, 253° | 651 W/m² | - |
| 1778013522 | 16.67° C | 43% | 1013.6 hPa | 0 mm | 1.79 m/s, 296° | 717 W/m² | - |
| 1778013218 | 16.67° C | 44% | 1013.5 hPa | 0 mm | 0.89 m/s, 112° | 725 W/m² | - |
| 1778012915 | 15.56° C | 45% | 1013.6 hPa | 0 mm | 0.89 m/s, 167° | 749 W/m² | - |
| 1778012611 | 16.11° C | 45% | 1013.9 hPa | 0 mm | 1.79 m/s, 200° | 739 W/m² | - |
| 1778012308 | 14.44° C | 48% | 1014 hPa | 0 mm | 0.45 m/s, 348° | 554 W/m² | - |
| 1778012005 | 15° C | 47% | 1013.8 hPa | 0 mm | 1.79 m/s, 296° | 751 W/m² | - |
* Rain latest hour (hover to see other rain measurements)
** Current wind speed in m/s (hover to see current wind gust speed)